createdAt,value
2022-12-31T00:01:07.240Z,78.67
2022-12-31T00:03:35.086Z,78.75
2022-12-31T00:06:13.169Z,79.02
2022-12-31T00:08:40.727Z,79.12
2022-12-31T00:11:08.103Z,79.31
2022-12-31T00:13:37.274Z,79.23
2022-12-31T00:16:15.422Z,78.84
2022-12-31T00:18:49.115Z,79.04
2022-12-31T00:21:17.764Z,78.74
2022-12-31T00:23:45.653Z,78.09
2022-12-31T00:26:21.273Z,77.39
2022-12-31T00:28:49.026Z,76.97
2022-12-31T00:31:29.732Z,76.41
2022-12-31T00:33:58.819Z,76.30
2022-12-31T00:36:38.702Z,76.13
2022-12-31T00:39:08.708Z,76.07
2022-12-31T00:41:36.738Z,75.99
2022-12-31T00:44:04.471Z,76.19
2022-12-31T00:46:32.009Z,76.08
2022-12-31T00:48:59.544Z,75.82
2022-12-31T00:51:27.830Z,75.39
2022-12-31T00:53:58.702Z,75.05
2022-12-31T00:56:30.394Z,74.70
2022-12-31T00:58:59.498Z,74.61
2022-12-31T01:01:31.458Z,74.42
2022-12-31T01:04:06.551Z,74.54
2022-12-31T01:06:34.739Z,74.63
2022-12-31T01:09:02.650Z,74.74
2022-12-31T01:11:30.665Z,74.98
2022-12-31T01:14:11.553Z,74.96
2022-12-31T01:16:52.480Z,74.93
2022-12-31T01:19:28.632Z,75.52
2022-12-31T01:21:57.099Z,76.28
2022-12-31T01:24:24.852Z,76.77
2022-12-31T01:26:52.244Z,76.86
2022-12-31T01:29:19.759Z,76.71
2022-12-31T01:31:47.217Z,76.60
2022-12-31T01:34:14.672Z,76.33
2022-12-31T01:36:42.092Z,76.01
2022-12-31T01:39:11.507Z,75.69
2022-12-31T01:41:44.122Z,75.24
2022-12-31T01:44:11.531Z,74.76
2022-12-31T01:46:52.146Z,74.29
2022-12-31T01:50:03.141Z,74.30
2022-12-31T01:52:45.137Z,74.23
2022-12-31T01:55:21.443Z,74.21
2022-12-31T01:57:56.346Z,74.07
2022-12-31T02:00:23.887Z,74.11
2022-12-31T02:02:51.887Z,74.10
2022-12-31T02:05:27.110Z,74.39
2022-12-31T02:07:55.068Z,74.90
2022-12-31T02:10:22.472Z,75.25
2022-12-31T02:12:50.608Z,75.61
2022-12-31T02:15:24.860Z,75.70
2022-12-31T02:18:29.619Z,75.39
2022-12-31T02:21:18.255Z,74.98
2022-12-31T02:23:57.791Z,74.43
2022-12-31T02:26:49.735Z,74.41
2022-12-31T02:29:58.051Z,74.56
2022-12-31T02:32:38.055Z,74.27
2022-12-31T02:35:16.317Z,74.32
2022-12-31T02:37:49.771Z,74.39
2022-12-31T02:40:21.222Z,74.58
2022-12-31T02:42:54.906Z,74.95
2022-12-31T02:45:32.344Z,75.28
2022-12-31T02:47:59.663Z,75.19
2022-12-31T02:50:34.466Z,74.96
2022-12-31T02:53:20.489Z,74.94
2022-12-31T02:56:02.942Z,75.12
2022-12-31T02:59:17.850Z,75.46
2022-12-31T03:02:11.864Z,75.82
2022-12-31T03:04:43.395Z,76.60
2022-12-31T03:07:17.714Z,76.46
2022-12-31T03:09:45.202Z,76.29
2022-12-31T03:12:32.253Z,76.29
2022-12-31T03:15:00.209Z,75.84
2022-12-31T03:17:27.657Z,75.70
2022-12-31T03:20:13.919Z,75.77
2022-12-31T03:22:43.705Z,75.60
2022-12-31T03:25:33.719Z,75.59
2022-12-31T03:28:12.049Z,75.69
2022-12-31T03:30:41.961Z,75.93
2022-12-31T03:33:10.144Z,75.97
2022-12-31T03:35:40.196Z,76.36
2022-12-31T03:38:08.380Z,76.69
2022-12-31T03:40:48.813Z,76.38
2022-12-31T03:43:17.056Z,75.98
2022-12-31T03:45:44.889Z,75.58
2022-12-31T03:48:13.349Z,75.20
2022-12-31T03:50:40.620Z,74.85
2022-12-31T03:53:08.069Z,74.81
2022-12-31T03:55:38.460Z,74.92
2022-12-31T03:58:06.312Z,75.14
2022-12-31T04:00:36.811Z,75.16
2022-12-31T04:03:04.254Z,76.02
2022-12-31T04:05:32.402Z,75.97
2022-12-31T04:07:59.876Z,75.97
2022-12-31T04:10:27.367Z,75.94
2022-12-31T04:12:54.923Z,75.75
2022-12-31T04:15:22.327Z,75.62
2022-12-31T04:17:49.773Z,75.73
2022-12-31T04:20:17.376Z,75.72
2022-12-31T04:22:44.871Z,75.13
2022-12-31T04:25:13.018Z,75.62
2022-12-31T04:27:45.402Z,77.44
2022-12-31T04:30:14.189Z,77.04
2022-12-31T04:32:42.515Z,77.11
2022-12-31T04:35:11.626Z,79.13
2022-12-31T04:37:39.497Z,79.43
2022-12-31T04:40:08.877Z,80.50
2022-12-31T04:42:36.856Z,81.42
2022-12-31T04:45:05.744Z,82.56
2022-12-31T04:47:33.252Z,82.36
2022-12-31T04:50:00.700Z,81.40
2022-12-31T04:52:28.112Z,79.88
2022-12-31T04:54:55.543Z,79.22
2022-12-31T04:57:22.995Z,79.82
2022-12-31T04:59:50.360Z,79.31
2022-12-31T05:02:17.934Z,78.74
2022-12-31T05:04:45.512Z,78.32
2022-12-31T05:07:12.997Z,77.90
2022-12-31T05:09:40.479Z,77.66
2022-12-31T05:12:08.011Z,77.61
2022-12-31T05:14:35.407Z,77.63
2022-12-31T05:17:02.864Z,77.28
2022-12-31T05:19:30.258Z,76.95
2022-12-31T05:22:16.480Z,76.77
2022-12-31T05:24:43.838Z,76.78
2022-12-31T05:27:11.478Z,76.81
2022-12-31T05:29:38.799Z,76.84
2022-12-31T05:32:06.165Z,77.03
2022-12-31T05:34:33.610Z,77.00
2022-12-31T05:37:01.024Z,76.76
2022-12-31T05:39:28.648Z,77.02
2022-12-31T05:41:56.262Z,77.27
2022-12-31T05:44:23.655Z,77.43
2022-12-31T05:46:51.045Z,77.61
2022-12-31T05:49:18.455Z,77.52
2022-12-31T05:51:46.099Z,77.33
2022-12-31T05:54:13.458Z,77.16
2022-12-31T05:56:40.939Z,76.99
2022-12-31T05:59:08.351Z,77.08
2022-12-31T06:01:35.817Z,76.81
2022-12-31T06:04:03.324Z,76.95
2022-12-31T06:06:30.808Z,76.43
2022-12-31T06:08:58.188Z,76.14
2022-12-31T06:11:25.569Z,75.85
2022-12-31T06:13:52.976Z,75.69
2022-12-31T06:16:20.372Z,75.56
2022-12-31T06:18:50.266Z,75.40
2022-12-31T06:21:19.765Z,75.50
2022-12-31T06:23:48.376Z,75.53
2022-12-31T06:26:16.539Z,74.99
2022-12-31T06:28:44.033Z,74.33
2022-12-31T06:31:14.474Z,73.48
2022-12-31T06:33:42.223Z,72.18
2022-12-31T06:36:13.901Z,69.88
2022-12-31T06:38:43.832Z,67.25
2022-12-31T06:41:14.780Z,64.25
2022-12-31T06:43:43.336Z,61.71
2022-12-31T06:46:15.516Z,60.33
2022-12-31T06:48:44.982Z,59.81
2022-12-31T06:51:19.203Z,57.75
2022-12-31T06:53:51.686Z,58.47
2022-12-31T06:56:34.009Z,57.20
2022-12-31T06:59:04.030Z,55.74
2022-12-31T07:01:50.430Z,53.77
2022-12-31T07:04:33.189Z,52.04
2022-12-31T07:07:38.436Z,50.41
2022-12-31T07:10:30.255Z,48.80
2022-12-31T07:13:23.857Z,47.39
2022-12-31T07:16:24.868Z,45.26
2022-12-31T07:19:12.934Z,45.31
2022-12-31T07:21:43.308Z,47.21
2022-12-31T07:24:12.373Z,49.47
2022-12-31T07:27:25.550Z,50.42
2022-12-31T07:30:29.536Z,48.63
2022-12-31T07:33:33.485Z,45.82
2022-12-31T07:36:12.847Z,45.62
2022-12-31T07:38:46.905Z,46.78
2022-12-31T07:41:39.608Z,48.36
2022-12-31T07:44:36.422Z,48.19
2022-12-31T07:47:11.788Z,47.06
2022-12-31T07:49:44.172Z,43.27
2022-12-31T07:52:12.178Z,41.24
2022-12-31T07:54:39.643Z,41.09
2022-12-31T07:57:07.156Z,40.21
2022-12-31T07:59:46.409Z,39.78
2022-12-31T08:02:54.148Z,38.07
2022-12-31T08:05:24.394Z,37.71
2022-12-31T08:08:25.767Z,38.90
2022-12-31T08:11:29.163Z,38.09
2022-12-31T08:14:02.058Z,38.21
2022-12-31T08:16:30.364Z,37.18
2022-12-31T08:18:58.174Z,34.91
2022-12-31T08:21:55.069Z,32.77
2022-12-31T08:24:39.361Z,36.15
2022-12-31T08:27:17.541Z,38.76
2022-12-31T08:29:47.840Z,41.26
2022-12-31T08:32:38.020Z,43.05
2022-12-31T08:35:28.257Z,47.61
2022-12-31T08:38:52.931Z,47.56
2022-12-31T08:43:32.360Z,47.24
2022-12-31T08:46:00.973Z,46.38
2022-12-31T08:48:41.811Z,43.29
2022-12-31T08:51:20.227Z,43.41
2022-12-31T08:53:48.485Z,43.11
2022-12-31T08:56:29.045Z,42.94
2022-12-31T08:59:24.106Z,43.62
2022-12-31T09:02:04.109Z,44.56
2022-12-31T09:05:19.599Z,45.31
2022-12-31T09:08:16.717Z,47.93
2022-12-31T09:11:00.652Z,48.34
2022-12-31T09:13:44.958Z,50.00
2022-12-31T09:16:36.953Z,50.05
2022-12-31T09:19:04.648Z,49.48
2022-12-31T09:21:32.505Z,49.34
2022-12-31T09:24:05.856Z,46.24
2022-12-31T09:26:49.654Z,48.93
2022-12-31T09:29:43.349Z,49.38
2022-12-31T09:32:38.031Z,49.04
2022-12-31T09:35:36.064Z,47.42
2022-12-31T09:38:15.051Z,45.98
2022-12-31T09:41:10.469Z,46.01
2022-12-31T09:44:05.291Z,45.12
2022-12-31T09:47:03.256Z,43.66
2022-12-31T09:50:08.136Z,42.47
2022-12-31T09:53:08.996Z,43.85
2022-12-31T09:56:03.087Z,39.64
2022-12-31T09:59:05.967Z,36.74
2022-12-31T10:01:59.460Z,36.71
2022-12-31T10:04:52.350Z,35.19
2022-12-31T10:07:50.430Z,31.45
2022-12-31T10:10:33.025Z,34.07
2022-12-31T11:38:53.184Z,42.91
2022-12-31T11:42:03.723Z,42.57
2022-12-31T11:44:57.366Z,43.95
2022-12-31T12:38:30.848Z,48.28
2022-12-31T12:41:07.428Z,48.78
2022-12-31T12:43:38.092Z,49.10
2022-12-31T12:46:18.197Z,50.03
2022-12-31T12:49:28.274Z,50.09
2022-12-31T12:52:09.923Z,49.29
2022-12-31T12:54:59.473Z,49.49
2022-12-31T12:57:43.101Z,49.81
2022-12-31T13:00:20.310Z,50.09
2022-12-31T13:03:01.502Z,47.86
2022-12-31T13:05:58.331Z,47.62
2022-12-31T13:08:53.348Z,47.67
2022-12-31T13:11:51.285Z,48.01
2022-12-31T13:14:32.581Z,47.00
2022-12-31T13:17:29.611Z,47.56
2022-12-31T13:20:06.651Z,47.22
2022-12-31T13:22:42.188Z,47.24
2022-12-31T13:25:35.319Z,47.19
2022-12-31T13:28:09.957Z,47.61
2022-12-31T13:30:44.506Z,47.59
2022-12-31T13:33:20.469Z,47.89
2022-12-31T13:35:55.473Z,49.09
2022-12-31T13:38:40.416Z,49.03
2022-12-31T13:41:19.272Z,48.37
2022-12-31T13:44:30.474Z,48.51
2022-12-31T13:47:10.160Z,48.74
2022-12-31T13:49:52.864Z,48.85
2022-12-31T13:52:36.379Z,49.20
2022-12-31T13:55:22.935Z,49.16
2022-12-31T13:58:11.337Z,49.62
2022-12-31T14:00:58.516Z,49.82
2022-12-31T14:03:33.323Z,50.31
2022-12-31T14:06:34.136Z,50.56
2022-12-31T14:09:02.238Z,50.77
2022-12-31T14:12:15.944Z,51.06
2022-12-31T14:15:01.496Z,51.50
2022-12-31T14:17:50.484Z,51.46
2022-12-31T14:20:53.047Z,51.93
2022-12-31T14:23:50.403Z,51.98
2022-12-31T14:26:37.548Z,52.52
2022-12-31T14:29:11.054Z,52.78
2022-12-31T14:31:53.547Z,53.13
2022-12-31T14:34:57.272Z,53.33
2022-12-31T14:37:52.117Z,53.17
2022-12-31T14:40:32.764Z,53.28
2022-12-31T14:43:35.409Z,53.67
2022-12-31T14:46:43.304Z,54.34
2022-12-31T14:49:35.359Z,55.07
2022-12-31T14:52:28.631Z,55.56
2022-12-31T14:55:17.049Z,56.15
2022-12-31T14:58:25.813Z,56.62
2022-12-31T15:00:53.843Z,57.30
2022-12-31T15:03:33.475Z,57.80
2022-12-31T15:06:28.648Z,57.85
2022-12-31T15:09:30.836Z,58.18
2022-12-31T15:12:24.126Z,58.38
2022-12-31T15:15:17.502Z,58.46
2022-12-31T15:17:56.524Z,58.91
2022-12-31T15:20:54.818Z,59.45
2022-12-31T15:23:38.122Z,60.22
2022-12-31T15:26:08.431Z,60.78
2022-12-31T15:28:40.043Z,61.16
2022-12-31T15:31:18.086Z,61.21
2022-12-31T15:34:06.627Z,61.29
2022-12-31T15:36:38.959Z,61.61
2022-12-31T15:39:11.156Z,61.80
2022-12-31T15:42:35.562Z,62.74
2022-12-31T15:44:55.006Z,62.71
2022-12-31T15:47:36.952Z,62.96
2022-12-31T15:50:13.208Z,62.71
2022-12-31T15:52:48.001Z,62.35
2022-12-31T15:55:41.577Z,63.09
2022-12-31T15:58:17.855Z,63.89
2022-12-31T16:01:06.791Z,63.99
2022-12-31T16:03:34.607Z,63.84
2022-12-31T16:06:10.685Z,64.54
2022-12-31T16:08:40.481Z,64.88
2022-12-31T16:11:09.866Z,66.67
2022-12-31T16:13:42.286Z,66.75
2022-12-31T16:16:26.171Z,66.47
2022-12-31T16:18:54.457Z,66.36
2022-12-31T16:21:35.402Z,67.01
2022-12-31T16:24:31.485Z,68.92
2022-12-31T16:27:07.170Z,69.13
2022-12-31T16:29:41.507Z,70.06
2022-12-31T16:32:15.568Z,69.92
2022-12-31T16:34:43.391Z,71.25
2022-12-31T16:37:28.649Z,70.67
2022-12-31T16:39:56.051Z,70.55
2022-12-31T16:42:25.281Z,71.09
2022-12-31T16:44:56.072Z,71.39
2022-12-31T16:47:40.067Z,71.62
2022-12-31T16:50:21.400Z,71.63
2022-12-31T16:53:03.034Z,71.35
2022-12-31T16:55:32.619Z,71.05
2022-12-31T16:58:28.436Z,70.68
2022-12-31T17:01:12.971Z,70.26
2022-12-31T17:03:46.759Z,70.16
2022-12-31T17:06:20.324Z,70.42
2022-12-31T17:09:04.710Z,70.45
2022-12-31T17:11:43.324Z,71.18
2022-12-31T17:14:10.748Z,70.89
2022-12-31T17:17:07.500Z,70.60
2022-12-31T17:19:47.259Z,71.23
2022-12-31T17:22:37.477Z,71.03
2022-12-31T17:25:25.344Z,71.02
2022-12-31T17:28:24.735Z,71.55
2022-12-31T17:30:52.925Z,71.63
2022-12-31T17:33:20.263Z,71.54
2022-12-31T17:35:49.407Z,71.76
2022-12-31T17:38:22.743Z,72.12
2022-12-31T17:41:06.728Z,73.11
2022-12-31T17:43:37.119Z,73.71
2022-12-31T17:46:17.067Z,73.79
2022-12-31T17:48:51.501Z,74.10
2022-12-31T17:51:19.090Z,74.05
2022-12-31T17:53:52.174Z,74.13
2022-12-31T17:56:20.676Z,74.43
2022-12-31T17:58:51.377Z,74.39
2022-12-31T18:01:23.227Z,74.08
2022-12-31T18:03:51.573Z,74.09
2022-12-31T18:06:19.609Z,74.06
2022-12-31T18:08:47.959Z,73.86
2022-12-31T18:11:22.890Z,73.76
2022-12-31T18:13:50.799Z,73.74
2022-12-31T18:16:18.283Z,74.19
2022-12-31T18:18:45.802Z,74.01
2022-12-31T18:21:34.938Z,74.10
2022-12-31T18:26:34.777Z,74.03
2022-12-31T18:29:16.748Z,73.87
2022-12-31T18:31:49.635Z,73.74
2022-12-31T18:34:18.592Z,73.67
2022-12-31T18:36:46.570Z,73.51
2022-12-31T18:39:14.230Z,73.50
2022-12-31T18:41:49.462Z,73.39
2022-12-31T18:44:18.105Z,73.39
2022-12-31T18:46:45.524Z,73.25
2022-12-31T18:49:12.911Z,73.33
2022-12-31T18:51:40.401Z,73.03
2022-12-31T18:54:12.098Z,72.80
2022-12-31T18:56:44.838Z,72.76
2022-12-31T18:59:14.632Z,72.50
2022-12-31T19:01:42.160Z,72.49
2022-12-31T19:04:27.620Z,72.62
2022-12-31T19:06:56.081Z,72.67
2022-12-31T19:12:15.271Z,72.93
2022-12-31T19:14:42.999Z,73.05
2022-12-31T19:19:36.710Z,73.51
2022-12-31T19:22:04.147Z,73.69
2022-12-31T19:24:32.177Z,73.86
2022-12-31T19:27:01.697Z,74.02
2022-12-31T19:29:29.187Z,74.30
2022-12-31T19:31:58.132Z,74.40
2022-12-31T19:34:25.664Z,74.59
2022-12-31T19:36:53.086Z,74.66
2022-12-31T19:39:21.444Z,74.60
2022-12-31T19:41:56.401Z,74.79
2022-12-31T19:44:26.983Z,74.90
2022-12-31T19:46:54.621Z,74.90
2022-12-31T19:49:22.113Z,74.91
2022-12-31T19:51:49.533Z,74.99
2022-12-31T19:54:16.900Z,74.90
2022-12-31T19:56:44.355Z,74.99
2022-12-31T19:59:11.875Z,75.05
2022-12-31T20:01:39.534Z,75.10
2022-12-31T20:04:07.135Z,75.13
2022-12-31T20:06:34.669Z,75.07
2022-12-31T20:09:03.240Z,75.07
2022-12-31T20:11:30.722Z,75.24
2022-12-31T20:13:58.295Z,75.30
2022-12-31T20:16:26.995Z,75.51
2022-12-31T20:18:54.790Z,75.41
2022-12-31T20:21:26.135Z,75.50
2022-12-31T20:23:55.366Z,75.71
2022-12-31T20:26:24.838Z,75.68
2022-12-31T20:28:52.978Z,75.69
2022-12-31T20:31:25.263Z,75.47
2022-12-31T20:33:54.543Z,75.32
2022-12-31T20:36:23.650Z,75.13
2022-12-31T20:38:51.848Z,75.01
2022-12-31T20:41:22.724Z,74.98
2022-12-31T20:43:50.559Z,75.03
2022-12-31T20:46:22.762Z,75.03
2022-12-31T20:48:53.953Z,74.82
2022-12-31T20:51:23.156Z,74.63
2022-12-31T20:53:57.488Z,74.45
2022-12-31T20:56:29.331Z,74.31
2022-12-31T20:58:57.658Z,74.29
2022-12-31T21:01:26.252Z,74.16
2022-12-31T21:04:06.931Z,73.95
2022-12-31T21:06:36.009Z,73.83
2022-12-31T21:09:06.618Z,73.60
2022-12-31T21:11:53.496Z,73.56
2022-12-31T21:14:21.180Z,73.34
2022-12-31T21:16:48.544Z,73.28
2022-12-31T21:19:16.039Z,73.25
2022-12-31T21:21:43.526Z,73.31
2022-12-31T21:24:11.085Z,73.44
2022-12-31T21:26:38.412Z,73.50
2022-12-31T21:29:05.811Z,73.51
2022-12-31T21:31:33.333Z,73.65
2022-12-31T21:34:00.736Z,73.70
2022-12-31T21:36:28.207Z,73.82
2022-12-31T21:38:55.643Z,73.92
2022-12-31T21:41:41.468Z,73.84
2022-12-31T21:44:08.935Z,73.76
2022-12-31T21:46:36.384Z,73.90
2022-12-31T21:49:04.225Z,74.16
2022-12-31T21:51:31.676Z,74.35
2022-12-31T21:53:59.027Z,74.52
2022-12-31T21:56:26.424Z,74.70
2022-12-31T21:59:29.966Z,74.71
2022-12-31T22:02:33.002Z,74.97
2022-12-31T22:05:02.344Z,75.16
2022-12-31T22:07:30.621Z,75.36
2022-12-31T22:09:58.031Z,75.38
2022-12-31T22:12:25.524Z,75.31
2022-12-31T22:15:13.908Z,75.16
2022-12-31T22:17:40.455Z,74.80
2022-12-31T22:20:26.260Z,74.74
2022-12-31T22:22:55.663Z,74.72
2022-12-31T22:25:23.046Z,74.75
2022-12-31T22:28:27.646Z,74.92
2022-12-31T22:30:38.003Z,75.20
2022-12-31T22:33:05.396Z,75.29
2022-12-31T22:35:32.792Z,75.39
2022-12-31T22:38:06.526Z,75.61
2022-12-31T22:40:37.406Z,75.76
2022-12-31T22:43:04.756Z,75.89
2022-12-31T22:45:32.100Z,76.11
2022-12-31T22:47:59.446Z,76.34
2022-12-31T22:50:26.821Z,76.52
2022-12-31T22:52:54.207Z,76.74
2022-12-31T22:55:21.611Z,76.76
2022-12-31T22:57:49.016Z,76.77
2022-12-31T23:00:16.515Z,76.51
2022-12-31T23:02:44.011Z,76.35
2022-12-31T23:05:16.241Z,76.33
2022-12-31T23:07:44.006Z,76.39
2022-12-31T23:10:30.172Z,76.39
2022-12-31T23:12:59.057Z,76.50
2022-12-31T23:15:45.186Z,76.80
2022-12-31T23:18:31.420Z,76.93
2022-12-31T23:21:17.382Z,77.14
2022-12-31T23:23:44.750Z,77.18
2022-12-31T23:26:12.173Z,77.25
2022-12-31T23:28:41.865Z,77.41
2022-12-31T23:31:09.370Z,77.38
2022-12-31T23:33:36.779Z,77.36
2022-12-31T23:36:07.061Z,77.38
2022-12-31T23:38:34.596Z,77.48
2022-12-31T23:41:15.987Z,77.44
2022-12-31T23:43:44.241Z,77.36
2022-12-31T23:46:12.584Z,77.34
2022-12-31T23:48:40.257Z,77.14
2022-12-31T23:51:07.652Z,77.01
2022-12-31T23:53:38.443Z,76.79
2022-12-31T23:56:23.277Z,76.55
2022-12-31T23:58:58.639Z,76.32
